Portada
METAR-TAF:

METAR-TAF

Aeroports :

Kashgar, Xina

latitud: 39-28N, longitud: 075-59E, altitud: 1291 m

Observació

L'informe es va fer fa 19 minuts, a les 08:00 UTC
Vent 6 kt del Est/Nord-Est, variant entre Nord/Nord-Est i Est/Sud-Est
Temperatura 12°C
Humitat 17%
Pressió 1033 hPa
Visibilitat 10 km o més
sense núvols per sota de 1500 mi sense presència de cumulonimbus.

METAR: ZWSH 120800Z 07003MPS 030V120 CAVOK 12/M12 Q1033 NOSIG

Hora: 16:19 (08:19 UTC)

Pronòstic

L'informe es va fer fa 5 hores i 10 minuts, a les 03:09 UTC
Pronòstic vàlid del 12 a les 06 UTC al 13 a les 06 UTC
Vent 8 kt del Est/Nord-Est
Visibilitat 10 km o més
sense núvols per sota de 1500 mi sense presència de cumulonimbus.
Evolucionant progressivament
l' 12 a les 20 UTC al 12 a les 21 UTC
Vent 10 kt del Nord-Oest

TAF: ZWSH 120309Z 1206/1306 06004MPS CAVOK TX13/1209Z TN02/1300Z BECMG 1220/1221 32005MPS

Observacions i pronòstics meteorològics de més de 4000 aeroports (METAR i TAF).

Les estacions disponibles són els punts grocs i vermells al mapa.

Posi el ratolí al punt desitjat per veure el nom de l'estació.

Feu clic per veure les observacions i els pronòstics meteorològics.

Per canviar el mapa: feu clic els botons verds amb una creu de color negre per apropar; al botó verd amb un guió per allunyar la imatge; o en les fletxes verdes per a mapes adjacents.


METAR-TAF: